createdAt,value
2019-03-23T00:00:39.828Z,102044.05
2019-03-23T00:03:10.206Z,102049.70
2019-03-23T00:05:40.549Z,102037.53
2019-03-23T00:08:11.092Z,102042.88
2019-03-23T00:10:41.302Z,102038.95
2019-03-23T00:13:11.745Z,102034.03
2019-03-23T00:15:42.132Z,102028.66
2019-03-23T00:18:12.586Z,102025.36
2019-03-23T00:20:42.926Z,102027.23
2019-03-23T00:23:13.300Z,102025.86
2019-03-23T00:25:43.466Z,102016.53
2019-03-23T00:28:13.765Z,102011.45
2019-03-23T00:30:44.089Z,102007.06
2019-03-23T00:33:14.388Z,101999.00
2019-03-23T00:35:44.838Z,102000.89
2019-03-23T00:38:15.241Z,101994.77
2019-03-23T00:40:45.637Z,101994.82
2019-03-23T00:43:15.953Z,101995.59
2019-03-23T00:45:46.317Z,101994.33
2019-03-23T00:48:16.574Z,101992.19
2019-03-23T00:50:46.876Z,101985.42
2019-03-23T00:53:17.029Z,101983.34
2019-03-23T00:55:47.318Z,101982.05
2019-03-23T00:58:17.602Z,101980.82
2019-03-23T01:00:48.269Z,101974.72
2019-03-23T01:03:18.704Z,101966.03
2019-03-23T01:05:49.055Z,101965.45
2019-03-23T01:08:19.526Z,101961.44
2019-03-23T01:10:49.916Z,101962.67
2019-03-23T01:13:20.753Z,101967.93
2019-03-23T01:15:50.980Z,101961.48
2019-03-23T01:18:21.447Z,101967.31
2019-03-23T01:20:51.774Z,101963.11
2019-03-23T01:23:22.553Z,101958.47
2019-03-23T01:25:52.893Z,101951.45
2019-03-23T01:28:23.158Z,101951.80
2019-03-23T01:30:53.536Z,101948.02
2019-03-23T01:33:23.825Z,101942.43
2019-03-23T01:35:54.142Z,101943.08
2019-03-23T01:38:24.644Z,101934.03
2019-03-23T01:40:55.044Z,101935.37
2019-03-23T01:43:25.323Z,101927.45
2019-03-23T01:45:55.686Z,101928.67
2019-03-23T01:48:25.974Z,101931.86
2019-03-23T01:50:56.310Z,101926.19
2019-03-23T01:53:26.674Z,101919.52
2019-03-23T01:55:56.948Z,101920.73
2019-03-23T01:58:27.456Z,101917.84
2019-03-23T02:00:57.810Z,101919.66
2019-03-23T02:03:28.310Z,101930.65
2019-03-23T02:05:58.565Z,101921.36
2019-03-23T02:08:28.798Z,101930.50
2019-03-23T02:10:59.108Z,101927.96
2019-03-23T02:13:29.674Z,101924.77
2019-03-23T02:16:00.147Z,101930.97
2019-03-23T02:18:30.569Z,101921.51
2019-03-23T02:21:02.138Z,101933.17
2019-03-23T02:23:32.386Z,101922.16
2019-03-23T02:26:02.710Z,101929.53
2019-03-23T02:28:33.150Z,101919.91
2019-03-23T02:31:03.741Z,101927.31
2019-03-23T02:33:33.979Z,101925.02
2019-03-23T02:36:04.153Z,101920.85
2019-03-23T02:38:34.411Z,101928.07
2019-03-23T02:41:04.851Z,101938.61
2019-03-23T02:43:35.219Z,101945.06
2019-03-23T02:46:05.699Z,101955.78
2019-03-23T02:48:35.895Z,101958.93
2019-03-23T02:51:06.264Z,101964.97
2019-03-23T02:53:36.512Z,101964.20
2019-03-23T02:56:07.102Z,101962.83
2019-03-23T02:58:37.434Z,101961.87
2019-03-23T03:01:07.711Z,101966.88
2019-03-23T03:03:38.146Z,101963.95
2019-03-23T03:06:08.590Z,101947.57
2019-03-23T03:08:39.255Z,101954.56
2019-03-23T03:11:09.642Z,101954.91
2019-03-23T03:13:39.941Z,101958.72
2019-03-23T03:16:10.261Z,101969.59
2019-03-23T03:18:40.704Z,101967.72
2019-03-23T03:21:11.088Z,101967.28
2019-03-23T03:23:41.313Z,101958.55
2019-03-23T03:26:11.957Z,101963.44
2019-03-23T03:28:42.127Z,101968.59
2019-03-23T03:31:12.600Z,101971.93
2019-03-23T03:33:42.763Z,101972.22
2019-03-23T03:36:13.090Z,101982.02
2019-03-23T03:38:43.411Z,101971.73
2019-03-23T03:41:15.047Z,101966.33
2019-03-23T03:43:45.460Z,101968.88
2019-03-23T03:46:15.681Z,101964.83
2019-03-23T03:48:46.280Z,101958.51
2019-03-23T03:51:16.472Z,101955.83
2019-03-23T03:53:47.064Z,101958.05
2019-03-23T03:56:17.321Z,101962.59
2019-03-23T03:58:47.561Z,101967.53
2019-03-23T04:01:17.850Z,101961.84
2019-03-23T04:03:48.099Z,101960.48
2019-03-23T04:06:18.342Z,101949.19
2019-03-23T04:08:48.736Z,101951.33
2019-03-23T04:11:19.363Z,101945.19
2019-03-23T04:13:49.735Z,101946.45
2019-03-23T04:16:20.016Z,101955.47
2019-03-23T04:18:51.549Z,101957.10
2019-03-23T04:21:21.834Z,101951.89
2019-03-23T04:23:52.324Z,101953.94
2019-03-23T04:26:22.535Z,101954.42
2019-03-23T04:28:53.001Z,101953.49
2019-03-23T04:31:23.403Z,101961.12
2019-03-23T04:33:53.700Z,101957.91
2019-03-23T04:36:24.057Z,101957.10
2019-03-23T04:38:55.507Z,101950.31
2019-03-23T04:41:26.973Z,101950.19
2019-03-23T04:43:57.223Z,101954.52
2019-03-23T04:46:27.715Z,101947.29
2019-03-23T04:48:57.919Z,101954.19
2019-03-23T04:51:28.465Z,101951.41
2019-03-23T04:53:58.585Z,101952.23
2019-03-23T04:56:29.083Z,101957.87
2019-03-23T04:58:59.447Z,101959.22
2019-03-23T05:01:29.719Z,101968.09
2019-03-23T05:04:00.114Z,101961.08
2019-03-23T05:06:30.227Z,101958.47
2019-03-23T05:09:00.553Z,101953.08
2019-03-23T05:11:32.068Z,101954.34
2019-03-23T05:14:02.643Z,101952.20
2019-03-23T05:16:33.065Z,101955.95
2019-03-23T05:19:03.411Z,101951.28
2019-03-23T05:21:33.663Z,101957.77
2019-03-23T05:24:04.042Z,101958.52
2019-03-23T05:26:34.569Z,101957.38
2019-03-23T05:29:04.997Z,101961.01
2019-03-23T05:31:35.268Z,101960.38
2019-03-23T05:34:06.008Z,101951.79
2019-03-23T05:36:36.520Z,101955.33
2019-03-23T05:39:07.721Z,101958.42
2019-03-23T05:41:40.654Z,101958.63
2019-03-23T05:44:10.825Z,101956.36
2019-03-23T05:46:41.182Z,101955.05
2019-03-23T05:49:11.568Z,101954.78
2019-03-23T05:51:41.834Z,101957.17
2019-03-23T05:54:12.105Z,101959.85
2019-03-23T05:56:43.628Z,101961.70
2019-03-23T05:59:13.834Z,101963.91
2019-03-23T06:01:44.039Z,101958.98
2019-03-23T06:04:14.326Z,101965.47
2019-03-23T06:06:44.713Z,101964.22
2019-03-23T06:09:14.926Z,101964.28
2019-03-23T06:11:45.308Z,101964.60
2019-03-23T06:14:15.694Z,101966.18
2019-03-23T06:16:46.017Z,101963.62
2019-03-23T06:19:16.218Z,101959.22
2019-03-23T06:21:46.675Z,101961.05
2019-03-23T06:24:18.260Z,101962.08
2019-03-23T06:26:48.604Z,101961.77
2019-03-23T06:29:18.847Z,101965.45
2019-03-23T06:31:49.106Z,101964.03
2019-03-23T06:34:19.367Z,101959.39
2019-03-23T06:36:49.454Z,101968.48
2019-03-23T06:39:19.675Z,101966.83
2019-03-23T06:41:49.950Z,101973.13
2019-03-23T06:44:21.519Z,101967.42
2019-03-23T06:46:51.811Z,101977.89
2019-03-23T06:49:22.251Z,101977.73
2019-03-23T06:51:52.507Z,101952.30
2019-03-23T06:54:23.011Z,101973.49
2019-03-23T06:56:53.491Z,101972.19
2019-03-23T06:59:23.660Z,101966.83
2019-03-23T07:01:54.194Z,101973.89
2019-03-23T07:04:26.673Z,101972.92
2019-03-23T07:06:56.541Z,101977.51
2019-03-23T07:09:26.799Z,101985.27
2019-03-23T07:11:57.234Z,101973.80
2019-03-23T07:14:27.629Z,101982.84
2019-03-23T07:16:57.947Z,101977.12
2019-03-23T07:19:28.190Z,101975.41
2019-03-23T07:21:58.625Z,101978.30
2019-03-23T07:24:29.006Z,101975.69
2019-03-23T07:26:59.367Z,101975.55
2019-03-23T07:29:29.613Z,101972.48
2019-03-23T07:32:05.679Z,101977.55
2019-03-23T07:34:33.104Z,101981.72
2019-03-23T07:37:04.573Z,101981.64
2019-03-23T07:39:34.874Z,101980.77
2019-03-23T07:42:05.306Z,101969.93
2019-03-23T07:44:35.651Z,101977.78
2019-03-23T07:47:06.005Z,101979.82
2019-03-23T07:49:36.338Z,101980.12
2019-03-23T07:52:06.958Z,101982.77
2019-03-23T07:54:37.226Z,101978.63
2019-03-23T07:57:07.570Z,101967.72
2019-03-23T07:59:37.838Z,101972.77
2019-03-23T08:02:08.198Z,101958.84
2019-03-23T08:04:38.555Z,101957.77
2019-03-23T08:07:08.815Z,101956.06
2019-03-23T08:09:39.354Z,101955.03
2019-03-23T08:12:09.668Z,101955.96
2019-03-23T08:14:41.307Z,101952.25
2019-03-23T08:17:11.614Z,101943.20
2019-03-23T08:19:41.883Z,101951.52
2019-03-23T08:22:12.288Z,101942.17
2019-03-23T08:24:42.598Z,101948.11
2019-03-23T08:27:12.922Z,101937.62
2019-03-23T08:29:43.181Z,101940.80
2019-03-23T08:32:13.714Z,101930.05
2019-03-23T08:34:44.044Z,101932.56
2019-03-23T08:37:14.442Z,101926.52
2019-03-23T08:39:48.605Z,101926.05
2019-03-23T08:42:16.632Z,101915.23
2019-03-23T08:44:46.788Z,101917.19
2019-03-23T08:47:17.187Z,101913.86
2019-03-23T08:49:47.607Z,101910.63
2019-03-23T08:52:17.873Z,101915.41
2019-03-23T08:54:49.175Z,101907.14
2019-03-23T08:57:19.703Z,101910.16
2019-03-23T08:59:50.075Z,101909.85
2019-03-23T09:02:21.815Z,101906.91
2019-03-23T09:04:52.325Z,101907.05
2019-03-23T09:07:23.832Z,101906.05
2019-03-23T09:09:59.212Z,101901.02
2019-03-23T09:12:26.286Z,101902.94
2019-03-23T09:14:57.417Z,101906.18
2019-03-23T09:17:27.645Z,101902.42
2019-03-23T09:19:58.101Z,101903.00
2019-03-23T09:22:28.705Z,101897.77
2019-03-23T09:24:59.110Z,101900.27
2019-03-23T09:27:29.339Z,101903.06
2019-03-23T09:29:59.790Z,101905.67
2019-03-23T09:32:29.968Z,101905.46
2019-03-23T09:35:00.384Z,101896.68
2019-03-23T09:37:31.748Z,101896.46
2019-03-23T09:40:10.057Z,101894.66
2019-03-23T09:42:33.977Z,101887.95
2019-03-23T09:45:04.693Z,101887.91
2019-03-23T09:47:35.014Z,101874.80
2019-03-23T09:50:06.426Z,101872.95
2019-03-23T09:52:36.774Z,101869.89
2019-03-23T09:55:07.663Z,101869.11
2019-03-23T09:57:37.772Z,101863.03
2019-03-23T10:00:08.583Z,101869.28
2019-03-23T10:02:39.147Z,101870.58
2019-03-23T10:05:10.568Z,101864.92
2019-03-23T10:07:40.860Z,101863.24
2019-03-23T10:10:21.380Z,101865.88
2019-03-23T10:12:43.833Z,101860.22
2019-03-23T10:15:14.441Z,101866.55
2019-03-23T10:17:44.673Z,101867.57
2019-03-23T10:20:15.119Z,101853.49
2019-03-23T10:22:45.325Z,101853.93
2019-03-23T10:25:15.680Z,101859.18
2019-03-23T10:27:45.784Z,101857.52
2019-03-23T10:30:16.232Z,101862.30
2019-03-23T10:32:46.437Z,101863.96
2019-03-23T10:35:16.769Z,101855.77
2019-03-23T10:37:47.037Z,101864.67
2019-03-23T10:40:17.401Z,101860.32
2019-03-23T10:42:47.853Z,101860.45
2019-03-23T10:45:18.217Z,101862.67
2019-03-23T10:47:48.748Z,101853.56
2019-03-23T10:50:20.382Z,101850.28
2019-03-23T10:52:50.696Z,101851.77
2019-03-23T10:55:20.951Z,101839.67
2019-03-23T10:57:51.373Z,101839.96
2019-03-23T11:00:21.649Z,101844.73
2019-03-23T11:02:52.001Z,101845.33
2019-03-23T11:05:22.218Z,101840.23
2019-03-23T11:07:52.447Z,101834.78
2019-03-23T11:10:22.769Z,101833.30
2019-03-23T11:12:53.104Z,101831.77
2019-03-23T11:15:23.435Z,101825.42
2019-03-23T11:17:53.798Z,101824.08
2019-03-23T11:20:24.279Z,101813.92
2019-03-23T11:22:54.784Z,101819.08
2019-03-23T11:25:25.184Z,101816.94
2019-03-23T11:27:55.441Z,101815.66
2019-03-23T11:30:25.803Z,101812.98
2019-03-23T11:32:55.943Z,101813.95
2019-03-23T11:35:26.285Z,101804.27
2019-03-23T11:37:57.929Z,101806.28
2019-03-23T11:40:28.262Z,101804.38
2019-03-23T11:42:58.702Z,101787.98
2019-03-23T11:45:29.014Z,101791.64
2019-03-23T11:47:59.350Z,101782.88
2019-03-23T11:50:29.568Z,101792.90
2019-03-23T11:52:59.963Z,101786.26
2019-03-23T11:55:30.257Z,101778.30
2019-03-23T11:58:00.717Z,101778.79
2019-03-23T12:00:30.873Z,101772.60
2019-03-23T12:03:01.320Z,101769.55
2019-03-23T12:05:31.523Z,101746.61
2019-03-23T12:08:01.969Z,101768.61
2019-03-23T12:10:32.178Z,101758.58
2019-03-23T12:13:02.565Z,101759.97
2019-03-23T12:15:34.045Z,101756.50
2019-03-23T12:18:04.482Z,101760.19
2019-03-23T12:20:34.990Z,101763.44
2019-03-23T12:23:05.412Z,101754.95
2019-03-23T12:25:35.962Z,101757.12
2019-03-23T12:28:06.281Z,101752.87
2019-03-23T12:30:36.498Z,101759.22
2019-03-23T12:33:06.751Z,101752.44
2019-03-23T12:35:37.294Z,101744.90
2019-03-23T12:38:07.683Z,101744.42
2019-03-23T12:40:38.007Z,101738.63
2019-03-23T12:43:08.277Z,101733.56
2019-03-23T12:45:38.940Z,101734.17
2019-03-23T12:48:09.286Z,101740.80
2019-03-23T12:50:39.629Z,101737.66
2019-03-23T12:53:09.861Z,101727.28
2019-03-23T12:55:40.172Z,101736.61
2019-03-23T12:58:10.495Z,101739.58
2019-03-23T13:00:40.796Z,101742.03
2019-03-23T13:03:11.144Z,101736.41
2019-03-23T13:05:41.410Z,101732.86
2019-03-23T13:08:11.844Z,101729.96
2019-03-23T13:10:42.057Z,101732.84
2019-03-23T13:13:12.458Z,101738.07
2019-03-23T13:15:42.791Z,101717.55
2019-03-23T13:18:13.107Z,101739.60
2019-03-23T13:20:43.535Z,101731.13
2019-03-23T13:23:14.789Z,101726.56
2019-03-23T13:25:45.093Z,101727.19
2019-03-23T13:28:15.424Z,101724.05
2019-03-23T13:30:45.700Z,101736.01
2019-03-23T13:33:16.138Z,101738.31
2019-03-23T13:35:46.359Z,101736.00
2019-03-23T13:38:16.739Z,101729.48
2019-03-23T13:40:47.051Z,101726.41
2019-03-23T13:43:17.492Z,101732.09
2019-03-23T13:45:47.654Z,101739.41
2019-03-23T13:48:19.477Z,101735.42
2019-03-23T13:50:49.743Z,101737.44
2019-03-23T13:53:20.243Z,101738.37
2019-03-23T13:55:50.442Z,101725.13
2019-03-23T13:58:20.787Z,101727.45
2019-03-23T14:00:51.092Z,101728.09
2019-03-23T14:03:21.440Z,101723.91
2019-03-23T14:05:51.770Z,101725.40
2019-03-23T14:08:22.116Z,101725.55
2019-03-23T14:10:52.359Z,101726.45
2019-03-23T14:13:22.847Z,101727.55
2019-03-23T14:15:53.113Z,101722.98
2019-03-23T14:18:23.479Z,101719.71
2019-03-23T14:20:53.824Z,101723.80
2019-03-23T14:23:24.028Z,101719.52
2019-03-23T14:25:54.379Z,101719.14
2019-03-23T14:28:24.685Z,101729.05
2019-03-23T14:30:55.076Z,101727.16
2019-03-23T14:33:25.295Z,101732.45
2019-03-23T14:35:55.787Z,101736.02
2019-03-23T14:38:25.991Z,101730.44
2019-03-23T14:40:56.330Z,101732.66
2019-03-23T14:43:26.771Z,101741.38
2019-03-23T14:45:57.134Z,101744.11
2019-03-23T14:48:27.296Z,101741.75
2019-03-23T14:50:57.643Z,101755.22
2019-03-23T14:53:27.939Z,101753.46
2019-03-23T14:55:58.394Z,101762.48
2019-03-23T14:58:28.552Z,101763.07
2019-03-23T15:00:58.958Z,101756.44
2019-03-23T15:03:29.240Z,101764.23
2019-03-23T15:05:59.598Z,101769.93
2019-03-23T15:08:31.871Z,101765.85
2019-03-23T15:11:01.930Z,101775.50
2019-03-23T15:13:32.221Z,101774.36
2019-03-23T15:16:02.479Z,101779.16
2019-03-23T15:18:32.928Z,101787.88
2019-03-23T15:21:03.297Z,101768.84
2019-03-23T15:23:33.506Z,101770.51
2019-03-23T15:26:04.178Z,101772.53
2019-03-23T15:28:34.808Z,101771.48
2019-03-23T15:31:05.268Z,101771.81
2019-03-23T15:33:35.583Z,101774.02
2019-03-23T15:36:06.336Z,101786.41
2019-03-23T15:38:36.750Z,101787.47
2019-03-23T15:41:07.067Z,101796.26
2019-03-23T15:43:38.621Z,101806.58
2019-03-23T15:46:08.920Z,101798.45
2019-03-23T15:48:39.053Z,101805.05
2019-03-23T15:51:09.346Z,101806.45
2019-03-23T15:53:40.864Z,101801.91
2019-03-23T15:56:11.295Z,101802.66
2019-03-23T15:58:41.617Z,101804.44
2019-03-23T16:01:11.837Z,101799.30
2019-03-23T16:03:42.221Z,101813.19
2019-03-23T16:06:12.626Z,101802.09
2019-03-23T16:08:43.061Z,101800.23
2019-03-23T16:11:13.343Z,101800.70
2019-03-23T16:13:43.722Z,101811.40
2019-03-23T16:16:14.065Z,101809.97
2019-03-23T16:18:44.385Z,101815.80
2019-03-23T16:21:14.685Z,101816.26
2019-03-23T16:23:45.127Z,101828.33
2019-03-23T16:26:15.344Z,101820.05
2019-03-23T16:28:45.666Z,101830.03
2019-03-23T16:31:16.221Z,101835.52
2019-03-23T16:33:46.346Z,101837.65
2019-03-23T16:36:16.516Z,101830.34
2019-03-23T16:38:46.892Z,101834.95
2019-03-23T16:41:17.109Z,101836.15
2019-03-23T16:43:47.419Z,101838.79
2019-03-23T16:46:17.784Z,101846.66
2019-03-23T16:48:48.274Z,101846.25
2019-03-23T16:51:18.614Z,101848.44
2019-03-23T16:53:49.135Z,101848.85
2019-03-23T16:56:19.467Z,101854.43
2019-03-23T16:58:49.887Z,101856.91
2019-03-23T17:01:20.084Z,101854.88
2019-03-23T17:03:50.504Z,101854.92
2019-03-23T17:06:20.769Z,101861.35
2019-03-23T17:08:51.048Z,101866.41
2019-03-23T17:11:21.428Z,101867.75
2019-03-23T17:13:53.121Z,101860.83
2019-03-23T17:16:23.425Z,101869.05
2019-03-23T17:18:53.755Z,101862.69
2019-03-23T17:21:24.028Z,101864.19
2019-03-23T17:23:54.280Z,101877.21
2019-03-23T17:26:24.611Z,101881.54
2019-03-23T17:28:55.058Z,101896.56
2019-03-23T17:31:25.249Z,101897.27
2019-03-23T17:33:55.623Z,101902.53
2019-03-23T17:36:25.885Z,101911.99
2019-03-23T17:38:56.465Z,101911.23
2019-03-23T17:41:26.773Z,101917.66
2019-03-23T17:43:57.062Z,101926.02
2019-03-23T17:46:27.832Z,101928.69
2019-03-23T17:48:58.132Z,101925.09
2019-03-23T17:51:28.501Z,101922.55
2019-03-23T17:53:59.107Z,101925.16
2019-03-23T17:56:29.367Z,101922.16
2019-03-23T17:58:59.688Z,101919.78
2019-03-23T18:01:30.063Z,101914.33
2019-03-23T18:04:00.450Z,101917.20
2019-03-23T18:06:30.780Z,101901.88
2019-03-23T18:09:00.984Z,101903.53
2019-03-23T18:11:31.479Z,101906.41
2019-03-23T18:14:01.961Z,101906.56
2019-03-23T18:16:32.440Z,101907.30
2019-03-23T18:19:02.710Z,101906.52
2019-03-23T18:21:32.973Z,101903.86
2019-03-23T18:24:03.517Z,101910.12
2019-03-23T18:26:33.825Z,101913.05
2019-03-23T18:29:05.412Z,101904.30
2019-03-23T18:31:35.754Z,101917.25
2019-03-23T18:34:06.388Z,101920.63
2019-03-23T18:36:36.665Z,101915.40
2019-03-23T18:39:07.886Z,101923.53
2019-03-23T18:41:38.044Z,101931.49
2019-03-23T18:44:16.233Z,101935.34
2019-03-23T18:46:40.924Z,101937.20
2019-03-23T18:49:11.441Z,101936.80
2019-03-23T18:51:42.892Z,101944.22
2019-03-23T18:54:13.166Z,101942.74
2019-03-23T18:56:43.560Z,101937.52
2019-03-23T18:59:13.914Z,101942.63
2019-03-23T19:01:44.308Z,101950.31
2019-03-23T19:04:14.533Z,101948.80
2019-03-23T19:06:44.904Z,101956.08
2019-03-23T19:09:15.155Z,101962.55
2019-03-23T19:11:45.449Z,101965.92
2019-03-23T19:14:15.981Z,101973.69
2019-03-23T19:16:46.100Z,101968.61
2019-03-23T19:19:16.422Z,101984.65
2019-03-23T19:21:47.065Z,101983.99
2019-03-23T19:24:17.279Z,101986.24
2019-03-23T19:26:47.755Z,101979.99
2019-03-23T19:29:17.931Z,101969.85
2019-03-23T19:31:48.318Z,101976.66
2019-03-23T19:34:18.487Z,101974.88
2019-03-23T19:36:48.878Z,101973.22
2019-03-23T19:39:19.042Z,101967.67
2019-03-23T19:41:49.477Z,101966.45
2019-03-23T19:44:19.889Z,101960.84
2019-03-23T19:46:52.347Z,101967.89
2019-03-23T19:49:22.396Z,101945.47
2019-03-23T19:51:52.721Z,101970.32
2019-03-23T19:54:23.088Z,101973.05
2019-03-23T19:56:53.473Z,101976.80
2019-03-23T19:59:23.753Z,101974.40
2019-03-23T20:01:54.282Z,101975.27
2019-03-23T20:04:24.618Z,101970.25
2019-03-23T20:06:54.944Z,101967.20
2019-03-23T20:09:25.320Z,101967.61
2019-03-23T20:11:56.946Z,101974.17
2019-03-23T20:14:27.197Z,101969.81
2019-03-23T20:16:57.579Z,101966.17
2019-03-23T20:19:27.847Z,101974.52
2019-03-23T20:21:58.132Z,101979.47
2019-03-23T20:24:28.637Z,101973.80
2019-03-23T20:26:58.729Z,101977.47
2019-03-23T20:29:29.038Z,101976.47
2019-03-23T20:31:59.438Z,101975.83
2019-03-23T20:34:31.025Z,101970.02
2019-03-23T20:37:01.254Z,101977.65
2019-03-23T20:39:31.745Z,101985.91
2019-03-23T20:42:03.155Z,101990.67
2019-03-23T20:44:34.177Z,101993.09
2019-03-23T20:47:04.505Z,101991.54
2019-03-23T20:49:36.369Z,101990.70
2019-03-23T20:52:06.697Z,101996.89
2019-03-23T20:54:37.184Z,101981.88
2019-03-23T20:57:07.537Z,101973.99
2019-03-23T20:59:38.040Z,101973.99
2019-03-23T21:02:08.370Z,101967.39
2019-03-23T21:04:38.725Z,101973.50
2019-03-23T21:07:09.060Z,101976.62
2019-03-23T21:09:40.628Z,101981.58
2019-03-23T21:12:11.011Z,101975.30
2019-03-23T21:14:41.139Z,101973.63
2019-03-23T21:17:11.476Z,101969.69
2019-03-23T21:19:41.929Z,101966.61
2019-03-23T21:22:12.083Z,101963.58
2019-03-23T21:24:42.411Z,101974.41
2019-03-23T21:27:12.914Z,101964.98
2019-03-23T21:29:43.021Z,101969.37
2019-03-23T21:32:13.510Z,101971.00
2019-03-23T21:34:43.759Z,101976.17
2019-03-23T21:37:14.167Z,101987.88
2019-03-23T21:39:44.388Z,101989.86
2019-03-23T21:42:14.873Z,101984.44
2019-03-23T21:44:45.244Z,101981.64
2019-03-23T21:47:15.379Z,101978.92
2019-03-23T21:49:45.523Z,101972.00
2019-03-23T21:52:15.798Z,101976.57
2019-03-23T21:54:45.975Z,101973.71
2019-03-23T21:57:16.288Z,101969.13
2019-03-23T21:59:46.691Z,101962.11
2019-03-23T22:02:16.857Z,101963.84
2019-03-23T22:04:47.239Z,101968.27
2019-03-23T22:07:17.675Z,101961.48
2019-03-23T22:09:47.896Z,101965.55
2019-03-23T22:12:18.223Z,101963.73
2019-03-23T22:14:48.552Z,101963.31
2019-03-23T22:17:18.777Z,101956.95
2019-03-23T22:19:49.103Z,101953.98
2019-03-23T22:22:19.322Z,101951.31
2019-03-23T22:24:49.591Z,101944.06
2019-03-23T22:27:19.796Z,101947.78
2019-03-23T22:29:50.041Z,101944.75
2019-03-23T22:32:20.732Z,101947.95
2019-03-23T22:34:51.005Z,101949.15
2019-03-23T22:37:21.381Z,101951.73
2019-03-23T22:39:51.914Z,101943.80
2019-03-23T22:42:22.319Z,101955.25
2019-03-23T22:44:52.970Z,101946.91
2019-03-23T22:47:23.203Z,101955.36
2019-03-23T22:49:53.373Z,101958.19
2019-03-23T22:52:23.652Z,101960.84
2019-03-23T22:54:53.982Z,101959.41
2019-03-23T22:57:24.503Z,101954.41
2019-03-23T22:59:54.769Z,101956.72
2019-03-23T23:02:25.160Z,101953.55
2019-03-23T23:04:55.637Z,101954.47
2019-03-23T23:07:26.124Z,101951.38
2019-03-23T23:09:56.330Z,101951.27
2019-03-23T23:12:26.435Z,101955.11
2019-03-23T23:15:04.379Z,101947.41
2019-03-23T23:17:29.994Z,101951.28
2019-03-23T23:20:00.421Z,101944.03
2019-03-23T23:22:30.699Z,101943.69
2019-03-23T23:25:01.171Z,101949.33
2019-03-23T23:27:31.497Z,101956.20
2019-03-23T23:30:02.003Z,101952.00
2019-03-23T23:32:32.350Z,101952.97
2019-03-23T23:35:02.607Z,101954.26
2019-03-23T23:37:32.955Z,101951.95
2019-03-23T23:40:03.435Z,101951.61
2019-03-23T23:42:33.593Z,101948.53
2019-03-23T23:45:14.543Z,101946.33
2019-03-23T23:47:36.771Z,101943.70
2019-03-23T23:50:08.889Z,101949.77
2019-03-23T23:52:39.197Z,101936.70
2019-03-23T23:55:09.899Z,101933.05
2019-03-23T23:57:40.096Z,101940.36
